createdAt,value
2019-04-23T00:01:07.918Z,55.40
2019-04-23T00:03:34.428Z,55.77
2019-04-23T00:06:15.150Z,56.49
2019-04-23T00:08:55.868Z,59.31
2019-04-23T00:11:13.559Z,60.83
2019-04-23T00:13:51.983Z,56.39
2019-04-23T00:16:21.560Z,51.68
2019-04-23T00:18:49.476Z,51.14
2019-04-23T00:21:31.872Z,43.09
2019-04-23T00:24:28.429Z,43.96
2019-04-23T00:31:40.869Z,51.10
2019-04-23T00:34:16.064Z,53.46
2019-04-23T00:36:44.556Z,55.90
2019-04-23T00:39:20.020Z,58.11
2019-04-23T00:41:54.630Z,59.54
2019-04-23T00:44:32.429Z,62.59
2019-04-23T00:46:54.629Z,59.23
2019-04-23T00:49:30.942Z,61.02
2019-04-23T00:52:09.458Z,62.21
2019-04-23T00:54:39.280Z,62.98
2019-04-23T00:57:18.502Z,62.84
2019-04-23T00:59:53.700Z,62.47
2019-04-23T01:02:16.761Z,61.52
2019-04-23T01:04:56.195Z,59.64
2019-04-23T01:07:30.456Z,60.70
2019-04-23T01:10:10.608Z,63.69
2019-04-23T01:15:10.294Z,64.07
2019-04-23T01:17:55.978Z,63.92
2019-04-23T01:20:22.606Z,64.20
2019-04-23T01:22:37.889Z,63.49
2019-04-23T01:25:24.449Z,62.92
2019-04-23T01:28:13.739Z,63.59
2019-04-23T01:30:59.250Z,62.20
2019-04-23T01:36:10.763Z,60.39
2019-04-23T01:38:35.207Z,60.31
2019-04-23T01:41:06.132Z,63.66
2019-04-23T01:46:09.866Z,62.88
2019-04-23T01:48:47.121Z,62.92
2019-04-23T01:51:09.588Z,63.34
2019-04-23T01:54:06.949Z,61.89
2019-04-23T01:56:24.821Z,60.78
2019-04-23T01:58:59.225Z,63.56
2019-04-23T02:01:47.043Z,65.91
2019-04-23T02:04:03.604Z,66.76
2019-04-23T02:06:31.433Z,67.51
2019-04-23T02:09:07.866Z,67.76
2019-04-23T02:11:47.439Z,68.47
2019-04-23T02:14:18.369Z,67.49
2019-04-23T02:16:50.326Z,67.74
2019-04-23T02:19:23.735Z,65.84
2019-04-23T02:22:06.574Z,64.85
2019-04-23T02:24:41.412Z,64.08
2019-04-23T02:27:11.966Z,65.04
2019-04-23T02:35:17.272Z,63.64
2019-04-23T02:37:47.730Z,63.70
2019-04-23T02:42:49.945Z,63.50
2019-04-23T02:45:09.463Z,64.45
2019-04-23T02:47:54.917Z,64.82
2019-04-23T02:50:32.927Z,65.57
2019-04-23T02:52:56.117Z,64.17
2019-04-23T02:55:29.566Z,63.60
2019-04-23T03:00:56.849Z,62.96
2019-04-23T03:05:45.561Z,62.07
2019-04-23T03:08:06.243Z,62.08
2019-04-23T03:13:29.324Z,59.00
2019-04-23T03:21:27.010Z,57.50
2019-04-23T03:24:01.618Z,57.40
2019-04-23T03:27:01.015Z,55.62
2019-04-23T03:39:52.440Z,55.75
2019-04-23T03:47:18.373Z,55.48
2019-04-23T03:50:11.518Z,53.96
2019-04-23T04:00:04.032Z,57.48
2019-04-23T04:05:04.059Z,56.07
2019-04-23T04:07:46.957Z,55.05
2019-04-23T04:10:09.090Z,53.98
2019-04-23T04:12:39.804Z,53.48
2019-04-23T04:18:03.830Z,54.50
2019-04-23T04:20:33.088Z,54.45
2019-04-23T04:23:07.767Z,53.03
2019-04-23T04:25:33.658Z,52.43
2019-04-23T04:33:41.443Z,49.25
2019-04-23T04:36:00.739Z,49.69
2019-04-23T04:41:04.265Z,48.21
2019-04-23T04:43:41.669Z,49.05
2019-04-23T04:46:27.482Z,48.91
2019-04-23T04:48:40.192Z,46.18
2019-04-23T04:59:00.270Z,46.59
2019-04-23T05:01:22.303Z,45.65
2019-04-23T05:03:54.867Z,46.60
2019-04-23T05:06:39.120Z,46.17
2019-04-23T05:09:19.509Z,46.02
2019-04-23T05:11:45.795Z,44.99
2019-04-23T05:14:05.883Z,43.36
2019-04-23T05:16:47.263Z,43.12
2019-04-23T05:20:02.049Z,43.40
2019-04-23T05:21:54.325Z,43.54
2019-04-23T05:24:31.840Z,43.24
2019-04-23T05:26:56.903Z,42.34
2019-04-23T05:29:27.605Z,41.78
2019-04-23T05:31:59.325Z,39.85
2019-04-23T05:34:36.153Z,39.85
2019-04-23T05:37:04.985Z,38.47
2019-04-23T05:39:44.525Z,38.70
2019-04-23T05:42:13.715Z,38.15
2019-04-23T05:44:50.395Z,36.77
2019-04-23T05:47:20.331Z,37.08
2019-04-23T05:49:51.760Z,36.85
2019-04-23T05:52:32.678Z,36.81
2019-04-23T05:55:01.542Z,36.45
2019-04-23T05:57:34.595Z,37.34
2019-04-23T06:00:13.863Z,37.70
2019-04-23T06:02:48.595Z,37.50
2019-04-23T06:05:22.474Z,37.17
2019-04-23T06:08:01.205Z,36.71
2019-04-23T06:10:29.026Z,36.84
2019-04-23T06:12:57.739Z,36.89
2019-04-23T06:15:32.441Z,37.58
2019-04-23T06:18:12.488Z,37.62
2019-04-23T06:20:50.328Z,38.33
2019-04-23T06:23:25.021Z,38.36
2019-04-23T06:25:57.270Z,38.67
2019-04-23T06:28:25.730Z,38.41
2019-04-23T06:33:25.951Z,37.55
2019-04-23T06:36:05.509Z,37.81
2019-04-23T06:38:54.535Z,38.72
2019-04-23T06:41:09.931Z,36.51
2019-04-23T06:43:54.672Z,35.70
2019-04-23T06:46:21.354Z,37.93
2019-04-23T06:48:47.131Z,38.45
2019-04-23T06:51:27.160Z,37.44
2019-04-23T06:53:57.804Z,37.17
2019-04-23T06:56:35.190Z,36.92
2019-04-23T06:59:06.326Z,36.82
2019-04-23T07:01:46.354Z,36.03
2019-04-23T07:04:10.629Z,36.42
2019-04-23T07:06:46.939Z,37.04
2019-04-23T07:11:51.380Z,37.21
2019-04-23T07:14:24.408Z,37.19
2019-04-23T07:16:57.067Z,36.44
2019-04-23T07:19:31.840Z,35.50
2019-04-23T07:22:09.992Z,34.75
2019-04-23T07:24:36.254Z,34.20
2019-04-23T07:27:11.735Z,34.25
2019-04-23T07:29:43.518Z,34.30
2019-04-23T07:32:11.120Z,33.70
2019-04-23T07:34:55.299Z,33.51
2019-04-23T07:37:22.962Z,33.51
2019-04-23T07:40:21.496Z,33.48
2019-04-23T07:42:39.106Z,32.93
2019-04-23T07:45:26.084Z,32.33
2019-04-23T07:50:46.032Z,31.20
2019-04-23T07:55:58.607Z,29.10
2019-04-23T07:58:27.329Z,28.83
2019-04-23T08:03:30.687Z,26.41
2019-04-23T08:06:00.572Z,25.50
2019-04-23T08:08:36.431Z,25.09
2019-04-23T08:11:33.140Z,24.41
2019-04-23T08:13:55.635Z,24.29
2019-04-23T08:16:28.176Z,24.22
2019-04-23T08:18:55.635Z,23.95
2019-04-23T08:21:25.766Z,24.01
2019-04-23T08:24:06.550Z,24.52
2019-04-23T08:26:54.413Z,24.50
2019-04-23T08:29:25.113Z,24.12
2019-04-23T08:37:08.712Z,22.79
2019-04-23T08:45:07.529Z,23.49
2019-04-23T08:47:52.500Z,23.91
2019-04-23T08:50:15.398Z,24.34
2019-04-23T08:52:45.924Z,23.75
2019-04-23T08:55:21.121Z,23.74
2019-04-23T08:57:52.060Z,23.57
2019-04-23T09:00:25.711Z,23.70
2019-04-23T09:03:00.632Z,23.45
2019-04-23T09:05:38.858Z,23.11
2019-04-23T09:08:25.273Z,23.09
2019-04-23T09:10:50.093Z,23.09
2019-04-23T09:13:39.977Z,22.92
2019-04-23T09:15:51.091Z,22.85
2019-04-23T09:18:35.173Z,22.67
2019-04-23T09:20:47.973Z,22.75
2019-04-23T09:25:57.822Z,22.83
2019-04-23T09:28:39.941Z,22.35
2019-04-23T09:31:11.517Z,22.52
2019-04-23T09:36:25.515Z,22.67
2019-04-23T09:39:01.332Z,22.64
2019-04-23T09:41:39.909Z,22.80
2019-04-23T09:49:44.373Z,22.91
2019-04-23T09:52:14.676Z,22.71
2019-04-23T09:55:05.996Z,23.15
2019-04-23T09:57:17.146Z,23.09
2019-04-23T09:59:52.349Z,23.79
2019-04-23T10:02:19.389Z,23.66
2019-04-23T10:04:48.297Z,24.38
2019-04-23T10:07:21.031Z,24.58
2019-04-23T10:09:40.637Z,24.35
2019-04-23T10:12:13.168Z,24.12
2019-04-23T10:14:55.113Z,24.15
2019-04-23T10:17:19.929Z,24.68
2019-04-23T10:19:53.002Z,24.19
2019-04-23T10:22:25.158Z,23.66
2019-04-23T10:24:59.419Z,23.12
2019-04-23T10:27:32.518Z,23.22
2019-04-23T10:30:06.106Z,23.68
2019-04-23T10:32:37.800Z,24.23
2019-04-23T10:35:22.315Z,24.34
2019-04-23T10:37:52.948Z,24.35
2019-04-23T10:40:25.483Z,23.65
2019-04-23T10:42:53.769Z,24.42
2019-04-23T10:45:47.926Z,25.10
2019-04-23T10:48:49.483Z,25.30
2019-04-23T10:51:28.719Z,24.95
2019-04-23T10:54:10.035Z,24.85
2019-04-23T10:56:36.117Z,24.29
2019-04-23T10:59:06.111Z,24.35
2019-04-23T11:01:35.873Z,24.45
2019-04-23T11:04:32.963Z,24.65
2019-04-23T11:12:24.157Z,24.22
2019-04-23T11:14:52.278Z,24.25
2019-04-23T11:17:32.979Z,24.07
2019-04-23T11:20:09.690Z,24.20
2019-04-23T11:25:15.903Z,24.41
2019-04-23T11:27:36.239Z,24.48
2019-04-23T11:30:20.130Z,24.64
2019-04-23T11:32:55.564Z,24.65
2019-04-23T11:35:33.991Z,24.46
2019-04-23T11:40:35.647Z,24.73
2019-04-23T11:43:22.745Z,24.65
2019-04-23T11:53:39.094Z,24.76
2019-04-23T11:56:02.793Z,24.65
2019-04-23T11:58:39.257Z,24.21
2019-04-23T12:01:38.538Z,24.51
2019-04-23T12:06:54.371Z,24.83
2019-04-23T12:09:53.835Z,24.21
2019-04-23T12:12:17.161Z,24.24
2019-04-23T12:14:47.968Z,24.44
2019-04-23T12:17:26.008Z,24.64
2019-04-23T12:20:03.354Z,24.79
2019-04-23T12:22:53.239Z,24.51
2019-04-23T12:25:32.794Z,24.19
2019-04-23T12:27:39.827Z,24.57
2019-04-23T12:30:27.760Z,24.87
2019-04-23T12:33:12.989Z,25.67
2019-04-23T12:35:25.696Z,25.61
2019-04-23T12:38:17.205Z,24.58
2019-04-23T12:53:32.052Z,24.83
2019-04-23T12:56:03.743Z,24.83
2019-04-23T12:58:40.098Z,24.63
2019-04-23T13:01:05.345Z,24.35
2019-04-23T13:03:45.814Z,24.28
2019-04-23T13:06:10.326Z,24.42
2019-04-23T13:11:23.634Z,23.68
2019-04-23T13:14:00.412Z,23.88
2019-04-23T13:16:39.897Z,24.39
2019-04-23T13:18:58.157Z,24.62
2019-04-23T13:21:51.780Z,24.45
2019-04-23T13:24:11.465Z,24.42
2019-04-23T13:26:37.965Z,24.43
2019-04-23T13:29:18.840Z,23.84
2019-04-23T13:31:48.221Z,24.30
2019-04-23T13:34:22.562Z,24.09
2019-04-23T13:36:51.501Z,23.96
2019-04-23T13:39:38.903Z,24.05
2019-04-23T13:42:06.993Z,24.31
2019-04-23T13:44:42.400Z,24.69
2019-04-23T13:47:25.034Z,24.51
2019-04-23T13:49:51.170Z,24.75
2019-04-23T13:52:43.046Z,25.03
2019-04-23T13:55:04.348Z,24.77
2019-04-23T13:59:55.949Z,24.44
2019-04-23T14:02:37.201Z,24.83
2019-04-23T14:05:14.165Z,25.02
2019-04-23T14:07:52.591Z,24.82
2019-04-23T14:10:36.645Z,25.06
2019-04-23T14:13:10.508Z,25.27
2019-04-23T14:15:42.639Z,25.35
2019-04-23T14:18:36.752Z,25.21
2019-04-23T14:20:34.911Z,25.16
2019-04-23T14:23:13.012Z,25.22
2019-04-23T14:25:51.732Z,25.51
2019-04-23T14:30:57.471Z,25.79
2019-04-23T14:33:30.445Z,25.72
2019-04-23T14:38:40.093Z,25.69
2019-04-23T14:41:09.611Z,25.75
2019-04-23T14:54:12.982Z,26.02
2019-04-23T14:56:39.512Z,26.10
2019-04-23T14:59:07.783Z,26.00
2019-04-23T15:04:11.035Z,26.20
2019-04-23T15:12:02.059Z,26.69
2019-04-23T15:14:38.031Z,26.63
2019-04-23T15:25:15.345Z,26.83
2019-04-23T15:29:48.151Z,27.28
2019-04-23T15:32:39.273Z,27.03
2019-04-23T15:35:18.395Z,27.01
2019-04-23T15:40:18.276Z,27.51
2019-04-23T15:42:52.096Z,27.66
2019-04-23T15:45:15.113Z,27.69
2019-04-23T15:48:00.488Z,27.67
2019-04-23T15:50:27.124Z,28.24
2019-04-23T15:52:56.501Z,28.29
2019-04-23T15:55:27.571Z,28.51
2019-04-23T16:00:38.834Z,28.57
2019-04-23T16:02:44.400Z,28.69
2019-04-23T16:05:18.457Z,29.09
2019-04-23T16:08:12.620Z,29.56
2019-04-23T16:10:54.714Z,29.30
2019-04-23T16:13:31.138Z,29.26
2019-04-23T16:16:03.390Z,29.82
2019-04-23T16:18:47.896Z,29.87
2019-04-23T16:21:26.846Z,30.46
2019-04-23T16:23:42.224Z,30.07
2019-04-23T16:26:17.328Z,29.54
2019-04-23T16:29:06.630Z,29.39
2019-04-23T16:31:33.505Z,29.27
2019-04-23T16:34:14.129Z,29.61
2019-04-23T16:36:32.520Z,30.13
2019-04-23T16:39:10.527Z,29.80
2019-04-23T16:41:51.979Z,29.79
2019-04-23T16:44:24.183Z,30.13
2019-04-23T16:49:24.865Z,29.99
2019-04-23T16:51:53.919Z,29.84
2019-04-23T16:54:32.916Z,30.12
2019-04-23T16:59:36.531Z,30.04
2019-04-23T17:02:17.501Z,29.97
2019-04-23T17:07:06.901Z,29.76
2019-04-23T17:09:51.207Z,29.79
2019-04-23T17:12:35.542Z,29.63
2019-04-23T17:14:57.252Z,29.63
2019-04-23T17:17:19.147Z,29.83
2019-04-23T17:20:02.658Z,30.23
2019-04-23T17:22:33.865Z,30.44
2019-04-23T17:25:15.241Z,30.57
2019-04-23T17:27:51.129Z,30.15
2019-04-23T17:30:11.490Z,30.41
2019-04-23T17:32:55.875Z,30.30
2019-04-23T17:35:24.389Z,30.57
2019-04-23T17:38:00.421Z,30.96
2019-04-23T17:40:24.577Z,33.06
2019-04-23T17:43:05.856Z,33.86
2019-04-23T17:45:35.589Z,34.15
2019-04-23T17:48:15.794Z,33.96
2019-04-23T17:50:56.782Z,33.75
2019-04-23T17:53:29.716Z,34.09
2019-04-23T17:58:43.996Z,33.57
2019-04-23T18:06:30.038Z,31.86
2019-04-23T18:09:00.525Z,31.21
2019-04-23T18:11:40.138Z,31.09
2019-04-23T18:14:03.884Z,30.89
2019-04-23T18:16:41.073Z,31.51
2019-04-23T18:22:01.807Z,31.28
2019-04-23T18:24:23.225Z,31.23
2019-04-23T18:27:00.984Z,31.01
2019-04-23T18:32:11.544Z,32.11
2019-04-23T18:34:53.882Z,31.98
2019-04-23T18:37:19.339Z,32.30
2019-04-23T18:42:25.768Z,33.83
2019-04-23T18:50:22.965Z,36.59
2019-04-23T18:55:48.761Z,37.84
2019-04-23T18:58:06.027Z,38.13
2019-04-23T19:00:53.264Z,42.73
2019-04-23T19:03:25.548Z,41.72
2019-04-23T19:06:18.665Z,42.15
2019-04-23T19:14:18.737Z,39.74
2019-04-23T19:16:54.494Z,39.59
2019-04-23T19:19:20.135Z,38.18
2019-04-23T19:22:12.415Z,38.26
2019-04-23T19:24:28.558Z,37.13
2019-04-23T19:34:39.356Z,37.00
2019-04-23T19:37:44.440Z,37.64
2019-04-23T19:39:45.345Z,36.26
2019-04-23T19:42:44.782Z,36.07
2019-04-23T19:44:51.179Z,37.24
2019-04-23T19:49:55.164Z,37.34
2019-04-23T19:52:51.819Z,35.79
2019-04-23T19:55:21.127Z,35.86
2019-04-23T19:57:45.526Z,35.89
2019-04-23T20:00:13.071Z,35.67
2019-04-23T20:03:03.246Z,35.61
2019-04-23T20:05:41.378Z,35.32
2019-04-23T20:08:08.718Z,36.04
2019-04-23T20:10:30.074Z,35.52
2019-04-23T20:12:54.574Z,35.62
2019-04-23T20:15:41.132Z,34.55
2019-04-23T20:18:00.413Z,34.58
2019-04-23T20:20:45.426Z,34.67
2019-04-23T20:23:26.527Z,34.87
2019-04-23T20:26:12.189Z,34.91
2019-04-23T20:28:48.898Z,36.35
2019-04-23T20:33:59.956Z,36.54
2019-04-23T20:36:26.128Z,36.71
2019-04-23T20:38:54.830Z,37.06
2019-04-23T20:41:32.521Z,38.35
2019-04-23T20:44:06.275Z,36.95
2019-04-23T20:46:40.165Z,36.42
2019-04-23T20:49:00.511Z,36.52
2019-04-23T20:51:47.170Z,36.30
2019-04-23T20:54:12.356Z,36.87
2019-04-23T20:56:56.328Z,37.32
2019-04-23T20:59:16.185Z,37.24
2019-04-23T21:02:06.280Z,38.03
2019-04-23T21:04:29.755Z,38.73
2019-04-23T21:07:12.106Z,39.00
2019-04-23T21:09:51.547Z,38.38
2019-04-23T21:12:15.924Z,38.11
2019-04-23T21:17:20.772Z,38.77
2019-04-23T21:19:59.801Z,39.31
2019-04-23T21:22:20.514Z,38.66
2019-04-23T21:24:51.540Z,38.19
2019-04-23T21:30:08.563Z,38.09
2019-04-23T21:32:53.808Z,37.68
2019-04-23T21:35:43.006Z,37.76
2019-04-23T21:37:54.227Z,37.94
2019-04-23T21:43:36.090Z,36.99
2019-04-23T21:45:59.993Z,36.79
2019-04-23T21:48:27.533Z,36.94
2019-04-23T21:50:58.009Z,37.28
2019-04-23T21:53:25.247Z,37.17
2019-04-23T21:56:06.988Z,37.25
2019-04-23T21:58:46.549Z,38.40
2019-04-23T22:01:21.218Z,38.40
2019-04-23T22:06:31.517Z,38.30
2019-04-23T22:08:57.732Z,37.81
2019-04-23T22:11:53.734Z,38.25
2019-04-23T22:16:41.021Z,38.04
2019-04-23T22:19:15.473Z,38.78
2019-04-23T22:26:57.680Z,40.42
2019-04-23T22:31:51.122Z,41.70
2019-04-23T22:34:34.070Z,41.66
2019-04-23T22:39:39.902Z,42.48
2019-04-23T22:44:59.097Z,43.47
2019-04-23T22:47:14.088Z,42.56
2019-04-23T22:55:02.293Z,41.90
2019-04-23T22:57:56.681Z,42.04
2019-04-23T23:00:14.608Z,41.59
2019-04-23T23:03:06.429Z,42.31
2019-04-23T23:05:39.421Z,42.79
2019-04-23T23:10:38.197Z,43.17
2019-04-23T23:13:12.041Z,42.88
2019-04-23T23:15:51.411Z,42.58
2019-04-23T23:18:17.714Z,42.24
2019-04-23T23:20:57.596Z,42.53
2019-04-23T23:23:21.442Z,42.32
2019-04-23T23:33:40.356Z,43.96
2019-04-23T23:36:17.981Z,44.13
2019-04-23T23:38:50.802Z,44.31
2019-04-23T23:41:19.905Z,44.45
2019-04-23T23:44:06.075Z,45.29
2019-04-23T23:46:29.613Z,47.42
2019-04-23T23:48:56.971Z,48.86
2019-04-23T23:51:29.156Z,49.51
2019-04-23T23:54:08.754Z,50.13
2019-04-23T23:59:10.674Z,51.62
